Time;durP1;ratioP1;P1;durP2;ratioP2;P2;SDS_P1;SDS_P2;PMS_P1;PMS_P2;Temp;Humidity;BMP_temperature;BMP_pressure;BME280_temperature;BME280_humidity;BME280_pressure;Samples;Min_cycle;Max_cycle;Signal;HPM_P1;HPM_P2
2023/08/13 00:01:38;;;;;;;;;;;;;;;21.26;44.31;100775.34;4905869;28;98629;-76
2023/08/13 00:04:04;;;;;;;;;;;;;;;21.23;44.22;100773.31;4902547;28;98875;-77
2023/08/13 00:06:31;;;;;;;;;;;;;;;21.21;44.18;100770.88;4901636;28;98230;-74
2023/08/13 00:09:02;;;;;;;;;;;;;;;21.20;44.21;100774.75;4922607;28;98444;-76
2023/08/13 00:11:29;;;;;;;;;;;;;;;21.18;44.26;100774.31;4901864;28;98116;-76
2023/08/13 00:13:56;;;;;;;;;;;;;;;21.18;44.22;100770.72;4900118;28;98331;-76
2023/08/13 00:16:26;;;;;;;;;;;;;;;21.17;44.27;100774.63;4907092;28;98111;-76
2023/08/13 00:18:54;;;;;;;;;;;;;;;21.14;44.25;100769.78;4911536;28;98116;-77
2023/08/13 00:21:20;;;;;;;;;;;;;;;21.11;44.24;100773.22;4882008;28;98550;-76
2023/08/13 00:23:48;;;;;;;;;;;;;;;21.09;44.30;100781.75;4912775;28;98318;-73
2023/08/13 00:26:15;;;;;;;;;;;;;;;21.05;44.28;100781.59;4905915;28;99286;-76
2023/08/13 00:28:42;;;;;;;;;;;;;;;21.04;44.27;100781.94;4897580;28;98404;-74
2023/08/13 00:31:08;;;;;;;;;;;;;;;21.03;44.36;100785.81;4938059;28;98932;-74
2023/08/13 00:33:35;;;;;;;;;;;;;;;21.01;44.30;100785.34;4916401;28;98207;-78
2023/08/13 00:36:01;;;;;;;;;;;;;;;20.99;44.39;100793.09;4901214;28;98244;-76
2023/08/13 00:38:28;;;;;;;;;;;;;;;20.96;44.45;100800.03;4898784;28;98229;-73
2023/08/13 00:40:55;;;;;;;;;;;;;;;20.93;44.46;100800.69;4904037;28;98848;-73
2023/08/13 00:43:22;;;;;;;;;;;;;;;20.91;44.38;100797.47;4897376;28;98217;-74
2023/08/13 00:45:50;;;;;;;;;;;;;;;20.90;44.51;100792.31;4899079;28;99160;-77
2023/08/13 00:48:17;;;;;;;;;;;;;;;20.90;44.43;100798.59;4898117;28;98320;-76
2023/08/13 00:50:44;;;;;;;;;;;;;;;20.91;44.50;100800.22;4881638;28;98609;-73
2023/08/13 00:53:12;;;;;;;;;;;;;;;20.91;44.40;100804.91;4900839;28;98191;-76
2023/08/13 00:55:40;;;;;;;;;;;;;;;20.91;44.44;100805.69;4901743;28;98069;-73
2023/08/13 00:58:06;;;;;;;;;;;;;;;20.90;44.54;100806.81;4915942;28;98188;-73
2023/08/13 01:00:33;;;;;;;;;;;;;;;20.91;44.44;100810.38;4900358;28;99558;-73
2023/08/13 01:03:00;;;;;;;;;;;;;;;20.91;44.47;100810.38;4906469;28;98024;-73
2023/08/13 01:05:44;;;;;;;;;;;;;;;20.91;44.44;100813.91;4902202;28;101824;-76
2023/08/13 01:08:15;;;;;;;;;;;;;;;20.90;44.43;100817.75;4917199;28;98146;-73
2023/08/13 01:10:41;;;;;;;;;;;;;;;20.91;44.48;100810.38;4901876;28;99729;-73
2023/08/13 01:13:18;;;;;;;;;;;;;;;20.92;44.41;100811.97;4904762;28;98130;-76
2023/08/13 01:15:46;;;;;;;;;;;;;;;20.92;44.40;100825.69;4907584;28;98602;-73
2023/08/13 01:18:13;;;;;;;;;;;;;;;20.91;44.46;100819.41;4913821;28;98256;-73
2023/08/13 01:20:43;;;;;;;;;;;;;;;20.91;44.45;100824.06;4877255;28;98286;-76
2023/08/13 01:23:11;;;;;;;;;;;;;;;20.92;44.43;100822.94;4905695;28;98594;-73
2023/08/13 01:25:39;;;;;;;;;;;;;;;20.93;44.54;100827.28;4901222;28;98405;-76
2023/08/13 01:28:34;;;;;;;;;;;;;;;20.92;44.50;100823.72;4896527;28;98235;-76
2023/08/13 01:31:18;;;;;;;;;;;;;;;20.91;44.42;100826.81;4902539;28;98445;-73
2023/08/13 01:33:47;;;;;;;;;;;;;;;20.87;44.57;100815.69;4918926;28;99818;-76
2023/08/13 01:36:16;;;;;;;;;;;;;;;20.84;44.55;100819.91;4913586;28;98263;-76
2023/08/13 01:38:44;;;;;;;;;;;;;;;20.82;44.50;100833.09;4910428;28;98109;-73
2023/08/13 01:41:11;;;;;;;;;;;;;;;20.81;44.55;100836.97;4880055;28;98142;-73
2023/08/13 01:43:42;;;;;;;;;;;;;;;20.81;44.47;100836.97;4919991;28;98222;-76
2023/08/13 01:46:10;;;;;;;;;;;;;;;20.80;44.57;100840.84;4897313;28;99365;-76
2023/08/13 01:48:40;;;;;;;;;;;;;;;20.77;44.56;100825.06;4918994;28;99752;-76
2023/08/13 01:51:08;;;;;;;;;;;;;;;20.75;44.66;100835.56;4901990;28;99561;-78
2023/08/13 01:53:36;;;;;;;;;;;;;;;20.73;44.53;100834.28;4894777;28;98683;-77
2023/08/13 01:56:05;;;;;;;;;;;;;;;20.71;44.48;100833.78;4923160;28;99515;-76
2023/08/13 01:58:35;;;;;;;;;;;;;;;20.67;44.70;100830.91;4923963;28;99496;-76
2023/08/13 02:01:02;;;;;;;;;;;;;;;20.65;44.73;100832.38;4898469;28;98977;-76
2023/08/13 02:03:30;;;;;;;;;;;;;;;20.63;44.68;100840.88;4902187;28;98600;-73
2023/08/13 02:05:57;;;;;;;;;;;;;;;20.62;44.86;100827.53;4878204;28;98943;-76
2023/08/13 02:08:26;;;;;;;;;;;;;;;20.60;44.79;100830.59;4898439;28;97913;-77
2023/08/13 02:10:53;;;;;;;;;;;;;;;20.62;44.74;100822.84;4884553;28;98433;-73
2023/08/13 02:13:23;;;;;;;;;;;;;;;20.63;44.77;100826.41;4881868;28;98756;-76
2023/08/13 02:15:50;;;;;;;;;;;;;;;20.62;44.66;100825.59;4894178;28;98632;-73
2023/08/13 02:18:19;;;;;;;;;;;;;;;20.64;44.69;100839.78;4885327;28;98202;-76
2023/08/13 02:20:47;;;;;;;;;;;;;;;20.63;44.72;100840.88;4897868;28;98443;-76
2023/08/13 02:23:17;;;;;;;;;;;;;;;20.64;44.69;100850.72;4900354;28;100019;-76
2023/08/13 02:25:43;;;;;;;;;;;;;;;20.63;44.71;100851.84;4889536;28;98146;-73
2023/08/13 02:28:11;;;;;;;;;;;;;;;20.61;44.73;100859.59;4883815;28;97910;-76
2023/08/13 02:30:40;;;;;;;;;;;;;;;20.61;44.72;100856.06;4882610;28;101478;-76
2023/08/13 02:33:07;;;;;;;;;;;;;;;20.61;44.62;100867.81;4899181;28;99014;-73
2023/08/13 02:35:36;;;;;;;;;;;;;;;20.62;44.72;100854.91;4897631;28;97895;-76
2023/08/13 02:38:08;;;;;;;;;;;;;;;20.62;44.66;100863.94;4896655;28;98478;-76
2023/08/13 02:40:34;;;;;;;;;;;;;;;20.63;44.75;100862.78;4883554;28;98756;-73
2023/08/13 02:43:02;;;;;;;;;;;;;;;20.63;44.66;100868.28;4897737;28;98033;-74
2023/08/13 02:45:29;;;;;;;;;;;;;;;20.61;44.82;100861.53;4885958;28;101154;-75
2023/08/13 02:47:59;;;;;;;;;;;;;;;20.58;44.69;100861.03;4895377;28;97993;-73
2023/08/13 02:50:32;;;;;;;;;;;;;;;20.56;44.71;100866.03;4914337;28;98548;-76
2023/08/13 02:53:00;;;;;;;;;;;;;;;20.55;44.90;100867.19;4885016;28;98571;-77
2023/08/13 02:55:28;;;;;;;;;;;;;;;20.54;44.84;100862.00;4911311;28;98480;-76
2023/08/13 02:57:56;;;;;;;;;;;;;;;20.50;44.91;100866.53;4904357;28;98243;-73
2023/08/13 03:00:23;;;;;;;;;;;;;;;20.47;44.94;100867.94;4883627;28;100015;-73
2023/08/13 03:02:50;;;;;;;;;;;;;;;20.46;44.90;100873.75;4901472;28;98385;-74
2023/08/13 03:05:20;;;;;;;;;;;;;;;20.44;44.86;100874.09;4899556;28;98544;-76
2023/08/13 03:07:50;;;;;;;;;;;;;;;20.41;44.83;100861.03;4903282;28;98083;-77
2023/08/13 03:10:17;;;;;;;;;;;;;;;20.40;44.91;100870.41;4881820;28;98645;-73
2023/08/13 03:12:47;;;;;;;;;;;;;;;20.37;44.87;100871.03;4912630;28;116052;-73
2023/08/13 03:15:13;;;;;;;;;;;;;;;20.36;44.86;100877.63;4883068;28;98357;-73
2023/08/13 03:17:41;;;;;;;;;;;;;;;20.35;45.01;100878.75;4904927;28;98448;-76
2023/08/13 03:20:08;;;;;;;;;;;;;;;20.33;44.92;100879.09;4882961;28;98700;-73
2023/08/13 03:22:35;;;;;;;;;;;;;;;20.32;44.86;100879.41;4884330;28;98097;-73
2023/08/13 03:25:04;;;;;;;;;;;;;;;20.30;44.99;100870.72;4916897;28;98587;-76
2023/08/13 03:27:31;;;;;;;;;;;;;;;20.29;44.97;100869.09;4871309;28;98147;-73
2023/08/13 03:29:58;;;;;;;;;;;;;;;20.27;45.07;100866.69;4902811;28;98251;-73
2023/08/13 03:32:25;;;;;;;;;;;;;;;20.29;45.00;100880.84;4885670;28;98035;-76
2023/08/13 03:34:53;;;;;;;;;;;;;;;20.29;44.97;100875.38;4897727;28;98015;-76
2023/08/13 03:37:22;;;;;;;;;;;;;;;20.29;45.00;100875.38;4871170;28;98238;-76
2023/08/13 03:39:49;;;;;;;;;;;;;;;20.30;44.91;100884.41;4902692;28;98819;-73
2023/08/13 03:42:15;;;;;;;;;;;;;;;20.32;44.93;100882.16;4883678;28;98139;-73
2023/08/13 03:44:43;;;;;;;;;;;;;;;20.33;45.02;100881.81;4883160;28;98243;-76
2023/08/13 03:47:10;;;;;;;;;;;;;;;20.35;45.00;100881.47;4897615;28;98106;-72
2023/08/13 03:49:37;;;;;;;;;;;;;;;20.36;45.15;100883.13;4872856;28;98394;-73
2023/08/13 03:52:05;;;;;;;;;;;;;;;20.37;44.93;100876.50;4881136;28;101212;-77
2023/08/13 03:54:33;;;;;;;;;;;;;;;20.39;44.94;100881.66;4879450;28;98919;-77
2023/08/13 03:57:01;;;;;;;;;;;;;;;20.40;44.85;100883.28;4888160;28;99879;-76
2023/08/13 03:59:32;;;;;;;;;;;;;;;20.41;44.76;100891.16;4873900;28;101843;-77
2023/08/13 04:02:00;;;;;;;;;;;;;;;20.41;44.93;100887.63;4894006;28;98110;-77
2023/08/13 04:04:27;;;;;;;;;;;;;;;20.41;44.92;100895.84;4893488;28;97998;-77
2023/08/13 04:06:53;;;;;;;;;;;;;;;20.40;44.91;100895.03;4884745;28;98204;-74
2023/08/13 04:09:19;;;;;;;;;;;;;;;20.41;44.87;100890.34;4878391;28;99649;-73
2023/08/13 04:11:46;;;;;;;;;;;;;;;20.40;44.90;100892.28;4912442;28;98302;-74
2023/08/13 04:14:13;;;;;;;;;;;;;;;20.40;44.94;100892.28;4905146;28;98457;-77
2023/08/13 04:16:40;;;;;;;;;;;;;;;20.42;44.90;100895.50;4885131;28;98282;-73
2023/08/13 04:19:06;;;;;;;;;;;;;;;20.44;44.83;100904.19;4886349;28;98078;-73
2023/08/13 04:21:34;;;;;;;;;;;;;;;20.46;44.94;100898.41;4887407;28;98482;-74
2023/08/13 04:24:01;;;;;;;;;;;;;;;20.47;44.88;100900.00;4872728;28;97979;-74
2023/08/13 04:26:28;;;;;;;;;;;;;;;20.47;44.83;100897.25;4887834;28;98803;-77
2023/08/13 04:28:59;;;;;;;;;;;;;;;20.49;44.96;100895.03;4917234;28;98817;-77
2023/08/13 04:31:26;;;;;;;;;;;;;;;20.49;44.86;100903.25;4885093;28;98290;-74
2023/08/13 04:33:54;;;;;;;;;;;;;;;20.50;44.94;100897.44;4899245;28;97916;-77
2023/08/13 04:36:21;;;;;;;;;;;;;;;;;;4889428;28;98238;-73
2023/08/13 04:38:48;;;;;;;;;;;;;;;20.56;44.88;100909.06;4890187;28;98748;-73
2023/08/13 04:41:15;;;;;;;;;;;;;;;20.59;44.84;100905.66;4872357;28;98395;-73
2023/08/13 04:43:42;;;;;;;;;;;;;;;20.63;44.78;100909.34;4908257;28;97994;-73
2023/08/13 04:46:09;;;;;;;;;;;;;;;20.68;44.69;100909.19;4875961;28;99194;-73
2023/08/13 04:48:44;;;;;;;;;;;;;;;20.72;44.73;100912.09;4901016;28;98371;-73
2023/08/13 04:51:11;;;;;;;;;;;;;;;20.75;44.71;100915.00;4900911;28;98514;-73
2023/08/13 04:53:38;;;;;;;;;;;;;;;20.75;44.73;100919.63;4890583;28;98679;-73
2023/08/13 04:56:06;;;;;;;;;;;;;;;20.75;44.78;100925.13;4873750;28;103211;-76
2023/08/13 04:58:33;;;;;;;;;;;;;;;20.75;44.77;100925.94;4878444;28;98066;-76
2023/08/13 05:01:00;;;;;;;;;;;;;;;20.76;44.85;100924.81;4912860;28;98601;-76
2023/08/13 05:03:31;;;;;;;;;;;;;;;20.75;44.80;100920.47;4891272;28;98372;-76
2023/08/13 05:05:58;;;;;;;;;;;;;;;20.75;45.05;100916.91;4874772;28;98219;-73
2023/08/13 05:08:25;;;;;;;;;;;;;;;20.79;44.83;100918.69;4872542;28;99659;-74
2023/08/13 05:10:52;;;;;;;;;;;;;;;20.87;44.67;100916.22;4891891;28;99105;-72
2023/08/13 05:13:19;;;;;;;;;;;;;;;20.95;44.65;100920.91;4891256;28;98154;-73
2023/08/13 05:15:49;;;;;;;;;;;;;;;21.03;44.60;100917.34;4892879;28;98718;-76
2023/08/13 05:18:16;;;;;;;;;;;;;;;21.13;44.44;100916.97;4888065;28;98302;-73
2023/08/13 05:20:43;;;;;;;;;;;;;;;21.28;44.40;100923.88;4888158;28;98388;-73
2023/08/13 05:23:11;;;;;;;;;;;;;;;21.36;44.31;100934.03;4890943;28;99898;-76
2023/08/13 05:25:40;;;;;;;;;;;;;;;21.42;44.56;100927.25;4897652;28;98131;-76
2023/08/13 05:28:12;;;;;;;;;;;;;;;21.39;44.42;100929.81;4901252;28;98161;-77
2023/08/13 05:30:40;;;;;;;;;;;;;;;21.41;44.48;100931.09;4902583;28;98437;-76
2023/08/13 05:33:12;;;;;;;;;;;;;;;21.47;44.45;100942.69;4889430;28;98558;-77
2023/08/13 05:35:40;;;;;;;;;;;;;;;21.47;44.49;100938.00;4898146;28;98227;-72
2023/08/13 05:38:09;;;;;;;;;;;;;;;21.46;44.50;100933.66;4903415;28;98096;-77
2023/08/13 05:40:38;;;;;;;;;;;;;;;21.52;44.50;100937.03;4902444;28;98961;-76
2023/08/13 05:43:05;;;;;;;;;;;;;;;21.54;44.61;100932.03;4902217;28;99958;-76
2023/08/13 05:45:33;;;;;;;;;;;;;;;21.53;44.58;100928.44;4904728;28;98265;-76
2023/08/13 05:48:01;;;;;;;;;;;;;;;21.53;44.58;100922.97;4884864;28;102839;-72
2023/08/13 05:50:29;;;;;;;;;;;;;;;21.53;44.61;100927.66;4885093;28;98408;-76
2023/08/13 05:52:56;;;;;;;;;;;;;;;21.54;44.66;100926.53;4888970;28;100721;-77
2023/08/13 05:55:23;;;;;;;;;;;;;;;21.58;44.70;100926.69;4897920;28;98122;-77
2023/08/13 05:57:50;;;;;;;;;;;;;;;21.67;44.58;100932.91;4914617;28;99104;-77
2023/08/13 06:00:17;;;;;;;;;;;;;;;21.87;44.29;100934.09;4900069;28;98594;-72
2023/08/13 06:02:43;;;;;;;;;;;;;;;22.03;44.23;100933.16;4888100;28;99629;-72
2023/08/13 06:05:13;;;;;;;;;;;;;;;22.18;43.97;100931.00;4890434;28;98278;-77
2023/08/13 06:07:40;;;;;;;;;;;;;;;22.28;44.14;100939.66;4892417;28;98161;-76
2023/08/13 06:10:07;;;;;;;;;;;;;;;22.45;43.74;100937.91;4903909;28;99630;-72
2023/08/13 06:12:42;;;;;;;;;;;;;;;22.51;43.80;100940.09;4891097;28;98420;-76
2023/08/13 06:15:12;;;;;;;;;;;;;;;22.67;43.89;100942.22;4919872;28;101691;-77
2023/08/13 06:17:42;;;;;;;;;;;;;;;23.02;43.40;100938.00;4884492;28;98716;-76
2023/08/13 06:20:10;;;;;;;;;;;;;;;23.69;43.00;100955.19;4870973;28;99201;-72
2023/08/13 06:22:38;;;;;;;;;;;;;;;23.93;42.93;100951.66;4886905;28;99863;-72
2023/08/13 06:25:07;;;;;;;;;;;;;;;23.88;43.04;100949.09;4872501;28;98411;-76
2023/08/13 06:27:35;;;;;;;;;;;;;;;23.90;43.25;100951.53;4889816;28;98683;-72
2023/08/13 06:30:03;;;;;;;;;;;;;;;24.07;42.88;100954.03;4883759;28;98283;-72
2023/08/13 06:32:29;;;;;;;;;;;;;;;24.04;43.08;100959.41;4885072;28;97885;-72
2023/08/13 06:34:56;;;;;;;;;;;;;;;23.96;43.68;100959.19;4885711;28;98372;-72
2023/08/13 06:37:23;;;;;;;;;;;;;;;23.90;43.75;100968.03;4888837;28;98154;-73
2023/08/13 06:39:52;;;;;;;;;;;;;;;23.96;43.67;100959.19;4886907;28;99324;-76
2023/08/13 06:42:20;;;;;;;;;;;;;;;24.16;43.44;100965.69;4898296;28;98286;-77
2023/08/13 06:44:48;;;;;;;;;;;;;;;24.20;43.18;100961.09;4882196;28;98227;-73
2023/08/13 06:47:16;;;;;;;;;;;;;;;24.24;43.32;100958.44;4883119;28;98219;-77
2023/08/13 06:49:45;;;;;;;;;;;;;;;24.14;43.48;100958.94;4879347;28;99934;-77
2023/08/13 06:52:16;;;;;;;;;;;;;;;24.10;43.46;100967.09;4896816;28;98020;-77
2023/08/13 06:54:42;;;;;;;;;;;;;;;24.09;43.60;100967.44;4880211;28;98262;-72
2023/08/13 06:57:09;;;;;;;;;;;;;;;24.17;43.65;100966.50;4896206;28;98597;-71
2023/08/13 06:59:36;;;;;;;;;;;;;;;24.36;43.46;100963.13;4882241;28;99298;-77
2023/08/13 07:02:04;;;;;;;;;;;;;;;24.43;43.27;100960.63;4883100;28;98654;-72
2023/08/13 07:04:33;;;;;;;;;;;;;;;24.67;42.95;100962.47;4894409;28;98097;-77
2023/08/13 07:07:02;;;;;;;;;;;;;;;24.90;42.78;100958.00;4883900;28;98341;-77
2023/08/13 07:09:29;;;;;;;;;;;;;;;25.03;43.04;100958.72;4880614;28;98513;-72
2023/08/13 07:11:56;;;;;;;;;;;;;;;25.15;43.04;100957.88;4889400;28;99810;-77
2023/08/13 07:14:26;;;;;;;;;;;;;;;25.28;42.95;100961.38;4897090;28;98034;-72
2023/08/13 07:16:53;;;;;;;;;;;;;;;25.26;43.04;100967.25;4885920;28;99224;-71
2023/08/13 07:19:20;;;;;;;;;;;;;;;25.28;42.95;100959.44;4916516;28;99178;-71
2023/08/13 07:21:50;;;;;;;;;;;;;;;25.39;42.80;100955.00;4916026;28;98339;-77
2023/08/13 07:24:17;;;;;;;;;;;;;;;25.59;42.88;100961.38;4912814;28;99786;-71
2023/08/13 07:26:43;;;;;;;;;;;;;;;25.90;42.49;100954.25;4900021;28;98246;-71
2023/08/13 07:29:12;;;;;;;;;;;;;;;27.24;41.05;100954.63;4907134;28;98098;-71
2023/08/13 07:31:38;;;;;;;;;;;;;;;28.22;40.58;100957.72;4889534;28;98264;-71
2023/08/13 07:34:05;;;;;;;;;;;;;;;28.01;40.85;100958.22;4897518;28;98299;-71
2023/08/13 07:36:33;;;;;;;;;;;;;;;27.79;41.31;100957.94;4898021;28;98447;-76
2023/08/13 07:39:02;;;;;;;;;;;;;;;27.69;41.63;100954.97;4913402;28;98602;-77
2023/08/13 07:41:29;;;;;;;;;;;;;;;27.83;41.57;100957.97;4899197;28;98306;-77
2023/08/13 07:43:55;;;;;;;;;;;;;;;28.39;40.74;100962.72;4885757;28;98557;-71
2023/08/13 07:46:22;;;;;;;;;;;;;;;28.41;41.25;100970.66;4890026;28;100161;-77
2023/08/13 07:48:50;;;;;;;;;;;;;;;28.24;41.47;100972.00;4900377;28;99701;-71
2023/08/13 07:51:17;;;;;;;;;;;;;;;28.22;41.73;100969.63;4890061;28;98288;-77
2023/08/13 07:53:44;;;;;;;;;;;;;;;28.13;41.87;100964.34;4890064;28;98997;-71
2023/08/13 07:56:11;;;;;;;;;;;;;;;28.17;41.48;100971.91;4905339;28;100768;-71
2023/08/13 07:58:38;;;;;;;;;;;;;;;28.22;41.79;100968.78;4906570;28;102879;-71
2023/08/13 08:01:04;;;;;;;;;;;;;;;28.59;41.53;100971.69;4880209;28;98146;-72
2023/08/13 08:03:32;;;;;;;;;;;;;;;29.07;40.96;100969.84;4888675;28;97986;-77
2023/08/13 08:06:00;;;;;;;;;;;;;;;29.25;41.13;100972.03;4903572;28;99476;-71
2023/08/13 08:08:27;;;;;;;;;;;;;;;29.32;40.87;100963.75;4889179;28;98176;-71
2023/08/13 08:10:54;;;;;;;;;;;;;;;29.87;40.61;100969.38;4907260;28;98471;-71
2023/08/13 08:13:20;;;;;;;;;;;;;;;30.66;39.70;100965.00;4893105;28;99728;-71
2023/08/13 08:15:47;;;;;;;;;;;;;;;31.13;39.71;100970.72;4901120;28;99471;-71
2023/08/13 08:18:15;;;;;;;;;;;;;;;30.97;40.08;100973.84;4914996;28;98464;-77
2023/08/13 08:20:45;;;;;;;;;;;;;;;30.79;40.51;100968.25;4934157;28;98425;-77
2023/08/13 08:23:13;;;;;;;;;;;;;;;30.55;40.74;100970.53;4889850;28;98853;-77
2023/08/13 08:25:41;;;;;;;;;;;;;;;30.33;41.05;100968.84;4902582;28;98645;-71
2023/08/13 08:28:09;;;;;;;;;;;;;;;30.17;41.15;100965.59;4898184;28;99832;-77
2023/08/13 08:30:37;;;;;;;;;;;;;;;30.01;41.38;100960.31;4916406;28;98729;-71
2023/08/13 08:33:06;;;;;;;;;;;;;;;29.98;41.42;100959.09;4899325;28;98577;-77
2023/08/13 08:35:33;;;;;;;;;;;;;;;30.02;41.63;100959.91;4901558;28;98290;-71
2023/08/13 08:38:00;;;;;;;;;;;;;;;29.97;41.23;100951.94;4916443;28;98002;-77
2023/08/13 08:40:31;;;;;;;;;;;;;;;29.96;41.16;100952.34;4916837;28;99116;-77
2023/08/13 08:42:58;;;;;;;;;;;;;;;30.05;41.50;100953.56;4916266;28;98207;-77
2023/08/13 08:45:26;;;;;;;;;;;;;;;30.26;41.09;100946.56;4934103;28;98391;-72
2023/08/13 08:47:53;;;;;;;;;;;;;;;30.60;40.53;100955.44;4901999;28;99964;-71
2023/08/13 08:50:20;;;;;;;;;;;;;;;31.91;39.43;100951.22;4903068;28;98299;-76
2023/08/13 08:52:47;;;;;;;;;;;;;;;32.91;38.50;100944.41;4893645;28;98133;-76
2023/08/13 08:55:17;;;;;;;;;;;;;;;33.33;38.47;100948.91;4899845;28;98425;-76
2023/08/13 08:57:44;;;;;;;;;;;;;;;33.46;38.44;100943.66;4905301;28;98302;-70
2023/08/13 09:00:10;;;;;;;;;;;;;;;34.93;37.08;100946.28;4902518;28;98395;-77
2023/08/13 09:02:39;;;;;;;;;;;;;;;36.21;36.58;100948.09;4894860;28;98321;-71
2023/08/13 09:05:06;;;;;;;;;;;;;;;37.30;36.16;100946.03;4901542;28;98353;-77
2023/08/13 09:07:33;;;;;;;;;;;;;;;38.43;35.31;100943.38;4907758;28;98147;-71
2023/08/13 09:10:02;;;;;;;;;;;;;;;39.63;34.78;100948.34;4895850;28;98880;-77
2023/08/13 09:12:35;;;;;;;;;;;;;;;40.69;34.12;100945.63;4888235;28;97970;-76
2023/08/13 09:15:11;;;;;;;;;;;;;;;41.71;33.84;100943.06;4909806;28;98392;-77
2023/08/13 09:17:41;;;;;;;;;;;;;;;42.20;33.53;100933.56;4870964;28;98294;-70
2023/08/13 09:20:18;;;;;;;;;;;;;;;42.63;33.60;100926.66;4880473;28;98017;-77
2023/08/13 09:22:46;;;;;;;;;;;;;;;43.07;33.67;100932.59;4883677;28;98481;-77
2023/08/13 09:25:14;;;;;;;;;;;;;;;42.47;34.81;100927.03;4871375;28;98219;-69
2023/08/13 09:27:41;;;;;;;;;;;;;;;41.40;35.85;100918.53;4883153;28;98385;-78
2023/08/13 09:30:12;;;;;;;;;;;;;;;40.76;36.34;100907.03;4881535;28;98799;-70
2023/08/13 09:32:40;;;;;;;;;;;;;;;40.61;36.63;100915.34;4884462;28;98239;-76
2023/08/13 09:35:07;;;;;;;;;;;;;;;40.89;36.50;100917.00;4863361;28;98355;-70
2023/08/13 09:37:34;;;;;;;;;;;;;;;40.73;36.43;100906.75;4880665;28;98749;-70
2023/08/13 09:40:00;;;;;;;;;;;;;;;40.59;36.55;100912.19;4887210;28;99482;-70
2023/08/13 09:42:26;;;;;;;;;;;;;;;40.75;36.37;100909.09;4882729;28;98105;-77
2023/08/13 09:44:56;;;;;;;;;;;;;;;40.65;36.44;100908.28;4879804;28;98111;-73
2023/08/13 09:47:25;;;;;;;;;;;;;;;40.80;36.52;100911.31;4868733;28;98051;-77
2023/08/13 09:49:53;;;;;;;;;;;;;;;40.82;36.04;100919.31;4877732;28;99719;-77
2023/08/13 09:52:20;;;;;;;;;;;;;;;41.05;36.21;100915.16;4895861;28;98461;-77
2023/08/13 09:55:06;;;;;;;;;;;;;;;40.15;37.20;100907.41;4886264;28;100579;-69
2023/08/13 09:57:32;;;;;;;;;;;;;;;40.29;36.99;100914.53;4881496;28;98717;-77
2023/08/13 09:59:59;;;;;;;;;;;;;;;41.48;35.66;100919.00;4863013;28;99411;-69
2023/08/13 10:02:25;;;;;;;;;;;;;;;41.88;35.47;100913.19;4896680;28;98816;-77
2023/08/13 10:04:52;;;;;;;;;;;;;;;41.69;35.79;100918.84;4879036;28;98672;-77
2023/08/13 10:07:18;;;;;;;;;;;;;;;41.16;36.18;100901.38;4867491;28;98803;-70
2023/08/13 10:09:44;;;;;;;;;;;;;;;41.13;36.49;100908.75;4895098;28;98013;-70
2023/08/13 10:12:10;;;;;;;;;;;;;;;40.12;37.32;100907.53;4894948;28;98235;-70
2023/08/13 10:14:37;;;;;;;;;;;;;;;39.50;37.73;100896.88;4884177;28;99511;-70
2023/08/13 10:17:06;;;;;;;;;;;;;;;38.40;38.93;100896.44;4880941;28;98289;-70
2023/08/13 10:19:39;;;;;;;;;;;;;;;38.60;38.42;100898.25;4893337;28;98917;-70
2023/08/13 10:22:07;;;;;;;;;;;;;;;37.67;39.34;100900.94;4895896;28;98867;-69
2023/08/13 10:24:33;;;;;;;;;;;;;;;38.18;38.01;100898.28;4910709;28;98128;-69
2023/08/13 10:27:00;;;;;;;;;;;;;;;37.27;39.05;100910.41;4909066;28;98203;-70
2023/08/13 10:29:34;;;;;;;;;;;;;;;38.42;38.00;100910.06;4882616;28;99097;-69
2023/08/13 10:32:01;;;;;;;;;;;;;;;40.37;35.77;100915.06;4899830;28;97971;-77
2023/08/13 10:34:40;;;;;;;;;;;;;;;40.89;35.41;100916.22;4895007;28;98461;-78
2023/08/13 10:37:19;;;;;;;;;;;;;;;41.15;35.38;100899.78;4897864;28;98250;-69
2023/08/13 10:39:58;;;;;;;;;;;;;;;41.44;35.63;100905.03;4885542;28;98583;-77
2023/08/13 10:42:27;;;;;;;;;;;;;;;41.79;35.32;100904.69;4915813;28;98131;-77
2023/08/13 10:44:53;;;;;;;;;;;;;;;41.89;35.41;100901.38;4913582;28;98816;-78
2023/08/13 10:47:23;;;;;;;;;;;;;;;42.65;34.80;100907.97;4894432;28;105472;-76
2023/08/13 10:49:49;;;;;;;;;;;;;;;40.90;36.78;100895.94;4891274;28;99005;-69
2023/08/13 10:52:15;;;;;;;;;;;;;;;40.22;37.42;100889.41;4883763;28;98039;-77
2023/08/13 10:54:41;;;;;;;;;;;;;;;39.32;38.27;100886.22;4882187;28;98405;-77
2023/08/13 10:57:07;;;;;;;;;;;;;;;38.89;38.19;100889.69;4883962;28;99572;-69
2023/08/13 10:59:34;;;;;;;;;;;;;;;40.21;36.79;100896.31;4893938;28;98438;-68
2023/08/13 11:02:18;;;;;;;;;;;;;;;40.16;36.77;100886.38;4899629;28;98314;-69
2023/08/13 11:04:45;;;;;;;;;;;;;;;39.18;37.92;100893.09;4894473;28;100474;-69
2023/08/13 11:07:11;;;;;;;;;;;;;;;37.82;38.94;100888.06;4883087;28;99861;-69
2023/08/13 11:09:38;;;;;;;;;;;;;;;37.05;39.85;100881.25;4890678;28;98332;-69
2023/08/13 11:12:05;;;;;;;;;;;;;;;36.46;40.24;100862.63;4893376;28;101664;-77
2023/08/13 11:14:32;;;;;;;;;;;;;;;38.31;37.37;100868.91;4897030;28;98106;-68
2023/08/13 11:16:58;;;;;;;;;;;;;;;38.83;37.23;100875.41;4882138;28;98334;-76
2023/08/13 11:19:24;;;;;;;;;;;;;;;39.23;36.88;100857.97;4909964;28;99179;-76
2023/08/13 11:21:50;;;;;;;;;;;;;;;39.61;36.49;100851.38;4896336;28;98265;-68
2023/08/13 11:24:17;;;;;;;;;;;;;;;39.80;36.45;100869.22;4896398;28;99538;-77
2023/08/13 11:26:44;;;;;;;;;;;;;;;39.23;37.21;100861.56;4871596;28;98124;-76
2023/08/13 11:29:10;;;;;;;;;;;;;;;38.67;37.67;100859.38;4906680;28;98492;-68
2023/08/13 11:31:38;;;;;;;;;;;;;;;38.60;37.77;100858.84;4894182;28;99801;-77
2023/08/13 11:34:04;;;;;;;;;;;;;;;38.46;37.70;100855.22;4882843;28;98093;-73
2023/08/13 11:36:31;;;;;;;;;;;;;;;38.44;37.61;100859.75;4910662;28;98443;-68
2023/08/13 11:38:57;;;;;;;;;;;;;;;38.69;37.50;100851.28;4862799;28;98266;-68
2023/08/13 11:41:23;;;;;;;;;;;;;;;38.73;37.53;100857.56;4894871;28;98369;-68
2023/08/13 11:43:54;;;;;;;;;;;;;;;38.71;37.77;100859.25;4876983;28;98434;-68
2023/08/13 11:46:20;;;;;;;;;;;;;;;38.95;37.46;100854.88;4876607;28;98961;-68
2023/08/13 11:48:46;;;;;;;;;;;;;;;39.21;37.19;100861.19;4891280;28;99703;-68
2023/08/13 11:51:14;;;;;;;;;;;;;;;39.03;37.39;100846.97;4894813;28;98330;-68
2023/08/13 11:53:44;;;;;;;;;;;;;;;38.74;37.50;100849.91;4878466;28;98714;-68
2023/08/13 11:56:11;;;;;;;;;;;;;;;38.83;37.52;100849.25;4909509;28;99585;-68
2023/08/13 11:58:37;;;;;;;;;;;;;;;38.90;37.24;100844.16;4892521;28;98544;-68
2023/08/13 12:01:04;;;;;;;;;;;;;;;39.37;36.85;100839.75;4861254;28;99765;-77
2023/08/13 12:03:36;;;;;;;;;;;;;;;39.60;36.77;100842.13;4896274;28;98220;-77
2023/08/13 12:06:06;;;;;;;;;;;;;;;39.41;36.79;100837.59;4877005;28;100612;-78
2023/08/13 12:08:32;;;;;;;;;;;;;;;39.44;37.17;100828.22;4889593;28;98146;-68
2023/08/13 12:10:58;;;;;;;;;;;;;;;39.26;37.30;100828.84;4917255;28;98688;-68
2023/08/13 12:13:25;;;;;;;;;;;;;;;37.63;38.56;100830.75;4910912;28;98631;-78
2023/08/13 12:15:51;;;;;;;;;;;;;;;36.80;39.71;100832.13;4890180;28;98875;-77
2023/08/13 12:18:18;;;;;;;;;;;;;;;37.27;38.69;100823.31;4897991;28;98450;-68
2023/08/13 12:20:44;;;;;;;;;;;;;;;36.09;39.84;100825.34;4903278;28;98425;-77
2023/08/13 12:23:11;;;;;;;;;;;;;;;35.53;40.19;100826.09;4902747;28;98541;-77
2023/08/13 12:25:37;;;;;;;;;;;;;;;35.54;39.85;100821.28;4880473;28;98251;-77
2023/08/13 12:28:05;;;;;;;;;;;;;;;34.95;40.18;100824.72;4897578;28;98934;-68
2023/08/13 12:30:31;;;;;;;;;;;;;;;35.16;39.64;100819.53;4911806;28;98426;-77
2023/08/13 12:32:59;;;;;;;;;;;;;;;35.58;39.23;100817.19;4881865;28;98190;-77
2023/08/13 12:35:26;;;;;;;;;;;;;;;35.50;39.49;100815.75;4900947;28;98460;-77
2023/08/13 12:37:53;;;;;;;;;;;;;;;35.23;39.65;100806.63;4903411;28;98589;-68
2023/08/13 12:40:22;;;;;;;;;;;;;;;34.88;39.88;100806.03;4897520;28;98334;-77